Heaters, WV (26627)

10:24 AM EDT en Octubre 30, 2014 (GMT -0400)
Grapevine Circle | Change Station
CLOSE
Current Station
Estación meteorológica personal
Location: Gassaway, WV
Altura: 1270 ft
Estaciones meteorológicas cercanas

Alt 1270 ft 38.66 °N, 80.74 °W | Updated 6 minutes ago

Nublado
Nublado
42.7 ° F
Sensación térmica 43 ° F
N
0.0
Viento Variable Viento desde ONO
Gusts 0.0 mph

Hoy
Alta -- | Baja -- ° F
--% Posibilidad de precipitaciones
Ayer
Alta -- | Baja -- ° F
Precip. -- pul
7:47 AM 6:24 PM
Creciente, 44% visible
Presión 30.12 pul
Visibilidad 10.0 Millas
Nubes Baja 2200 ft
Nublado 3900 ft
Vientos helados 43 ° F
Punto de rocío 38 ° F
Humedad 83%
Precipitaciones 0.00 pul
Espesor de la nieve No disponible.
UV 1 de una escala de 12
Polen .10 de una escala de 12
Calidad del aire No disponible.
Flu Activity No disponible.
METAR KW22 301415Z AUTO 00000KT 10SM FEW022 OVC039 05/02 A3012 RMK AO2

More Conditions Fewer Conditions

Presión 30.12 pul
Visibilidad 10.0 Millas
Nubes Baja 2200 ft
Nublado 3900 ft
Vientos helados 43 ° F
Punto de rocío 38 ° F
Humedad 83%
Precipitaciones 0.00 pul
Espesor de la nieve No disponible.
UV 1 de una escala de 12
Polen .10 de una escala de 12
Calidad del aire No disponible.
Flu Activity No disponible.
METAR KW22 301415Z AUTO 00000KT 10SM FEW022 OVC039 05/02 A3012 RMK AO2

More Conditions Fewer Conditions

10-Day Weather Forecast

Almanac

Astronomía

Oct. 30, 2014 Salida Puesta
Hora real
Crepúsculo civil
Crepúsculo náutico
Crepúsculo astronómico
Luna
Horas de luz
Horas de luz
Tomorrow will be .
, % of the Moon is Illuminated

Extremos de hoy

Máximos del estado Bajos del estado

Community

WunderPhotos

Upload Photos

1,766,371 ¡fotos cargadas!

WunderBlogs® & News

Nearby

Calidad del aire

  Calidad del aire Índice AQ Contaminante
Not available.

Grosos de nieve

Estación Profundido Altura

Actividad de terremotos

Ciudad Distance Mag. Tiempo y dato
Magnitud mínima muestra es 2,5.

Temperaturas de aguas costeras

Lugar Temperatura

Estaciones meteorológicas cercanas